createdAt,value
2022-12-05T00:00:15.522Z,44.15
2022-12-05T00:01:15.627Z,49.95
2022-12-05T00:02:15.596Z,44.47
2022-12-05T00:03:15.698Z,44.31
2022-12-05T00:04:16.180Z,46.41
2022-12-05T00:05:15.462Z,45.28
2022-12-05T00:06:15.534Z,45.76
2022-12-05T00:07:15.468Z,48.02
2022-12-05T00:08:15.501Z,53.01
2022-12-05T00:09:15.426Z,45.60
2022-12-05T00:10:15.417Z,45.60
2022-12-05T00:11:16.102Z,45.60
2022-12-05T00:12:15.418Z,45.12
2022-12-05T00:13:15.377Z,47.70
2022-12-05T00:14:15.376Z,44.15
2022-12-05T00:15:15.419Z,44.96
2022-12-05T00:16:16.163Z,42.38
2022-12-05T00:17:15.422Z,45.44
2022-12-05T00:18:16.612Z,54.14
2022-12-05T00:19:15.324Z,45.76
2022-12-05T00:20:15.351Z,44.79
2022-12-05T00:21:15.308Z,47.53
2022-12-05T00:22:15.311Z,45.28
2022-12-05T00:23:15.315Z,44.96
2022-12-05T00:24:15.300Z,46.08
2022-12-05T00:25:15.278Z,44.15
2022-12-05T00:26:15.271Z,44.47
2022-12-05T00:27:15.286Z,53.17
2022-12-05T00:28:15.276Z,51.88
2022-12-05T00:29:15.246Z,47.53
2022-12-05T00:30:15.324Z,46.57
2022-12-05T00:31:15.248Z,46.89
2022-12-05T00:32:15.754Z,51.08
2022-12-05T00:33:15.158Z,48.50
2022-12-05T00:34:15.163Z,44.47
2022-12-05T00:35:16.087Z,46.89
2022-12-05T00:36:15.135Z,48.50
2022-12-05T00:37:15.219Z,47.70
2022-12-05T00:38:15.111Z,44.96
2022-12-05T00:39:15.163Z,45.44
2022-12-05T00:40:16.092Z,59.30
2022-12-05T00:41:15.272Z,50.92
2022-12-05T00:42:15.292Z,47.86
2022-12-05T00:43:15.065Z,50.76
2022-12-05T00:44:15.379Z,48.18
2022-12-05T00:45:15.599Z,46.89
2022-12-05T00:46:15.084Z,47.70
2022-12-05T00:47:15.220Z,44.31
2022-12-05T00:48:15.024Z,49.95
2022-12-05T00:49:15.220Z,46.57
2022-12-05T00:50:15.988Z,43.67
2022-12-05T00:51:14.996Z,44.15
2022-12-05T00:52:15.019Z,45.44
2022-12-05T00:53:14.954Z,44.47
2022-12-05T00:54:14.980Z,43.51
2022-12-05T00:55:14.926Z,45.44
2022-12-05T00:56:14.914Z,49.15
2022-12-05T00:57:15.576Z,46.25
2022-12-05T00:58:15.901Z,43.99
2022-12-05T00:59:16.132Z,44.63
2022-12-05T01:00:14.933Z,47.86
2022-12-05T01:01:15.045Z,44.15
2022-12-05T01:02:14.849Z,42.86
2022-12-05T01:03:14.989Z,48.02
2022-12-05T01:04:14.847Z,46.73
2022-12-05T01:05:14.869Z,47.70
2022-12-05T01:06:14.806Z,45.44
2022-12-05T01:07:14.797Z,44.31
2022-12-05T01:08:14.880Z,45.44
2022-12-05T01:09:14.781Z,44.79
2022-12-05T01:10:14.767Z,46.57
2022-12-05T01:11:14.779Z,46.73
2022-12-05T01:12:14.769Z,46.57
2022-12-05T01:13:14.789Z,43.34
2022-12-05T01:14:14.725Z,43.83
2022-12-05T01:15:14.741Z,44.96
2022-12-05T01:16:14.975Z,47.05
2022-12-05T01:17:14.708Z,51.56
2022-12-05T01:18:14.707Z,54.79
2022-12-05T01:19:14.782Z,53.33
2022-12-05T01:20:14.678Z,44.15
2022-12-05T01:21:15.734Z,44.63
2022-12-05T01:22:14.658Z,44.15
2022-12-05T01:23:15.053Z,44.47
2022-12-05T01:24:14.647Z,54.46
2022-12-05T01:25:14.605Z,55.59
2022-12-05T01:26:16.102Z,58.33
2022-12-05T01:27:14.634Z,46.41
2022-12-05T01:28:14.674Z,45.44
2022-12-05T01:29:14.616Z,57.52
2022-12-05T01:30:14.585Z,45.44
2022-12-05T01:31:14.541Z,46.57
2022-12-05T01:32:14.778Z,47.86
2022-12-05T01:33:14.537Z,44.31
2022-12-05T01:34:15.465Z,46.89
2022-12-05T01:35:14.519Z,47.21
2022-12-05T01:36:14.520Z,45.44
2022-12-05T01:37:15.095Z,45.60
2022-12-05T01:38:15.094Z,44.31
2022-12-05T01:39:16.098Z,48.18
2022-12-05T01:40:14.472Z,44.96
2022-12-05T01:41:14.821Z,45.44
2022-12-05T01:42:14.462Z,50.92
2022-12-05T01:43:14.423Z,52.05
2022-12-05T01:44:15.599Z,49.95
2022-12-05T01:45:14.455Z,46.25
2022-12-05T01:46:14.526Z,48.66
2022-12-05T01:47:14.360Z,54.62
2022-12-05T01:48:14.384Z,43.67
2022-12-05T01:49:16.017Z,42.86
2022-12-05T01:50:14.359Z,45.92
2022-12-05T01:51:14.387Z,46.89
2022-12-05T01:52:14.345Z,46.08
2022-12-05T01:53:14.355Z,49.15
2022-12-05T01:54:14.331Z,47.21
2022-12-05T01:55:14.348Z,47.21
2022-12-05T01:56:14.339Z,46.73
2022-12-05T01:57:14.267Z,47.21
2022-12-05T01:58:14.360Z,48.18
2022-12-05T01:59:14.255Z,45.60
2022-12-05T02:00:14.240Z,50.27
2022-12-05T02:01:14.466Z,48.18
2022-12-05T02:02:14.226Z,52.53
2022-12-05T02:03:14.289Z,48.98
2022-12-05T02:04:14.249Z,49.79
2022-12-05T02:05:14.285Z,48.98
2022-12-05T02:06:15.074Z,47.21
2022-12-05T02:07:14.148Z,47.37
2022-12-05T02:08:15.008Z,52.37
2022-12-05T02:09:14.143Z,48.18
2022-12-05T02:10:14.168Z,48.98
2022-12-05T02:11:14.110Z,55.27
2022-12-05T02:12:14.113Z,49.31
2022-12-05T02:13:15.572Z,47.53
2022-12-05T02:14:15.069Z,51.24
2022-12-05T02:15:14.088Z,49.47
2022-12-05T02:16:14.136Z,46.89
2022-12-05T02:17:14.066Z,49.95
2022-12-05T02:18:14.083Z,49.95
2022-12-05T02:19:14.021Z,48.66
2022-12-05T02:20:14.065Z,49.47
2022-12-05T02:21:14.040Z,53.66
2022-12-05T02:22:14.055Z,51.40
2022-12-05T02:23:13.979Z,63.16
2022-12-05T02:24:14.496Z,57.36
2022-12-05T02:25:13.948Z,53.17
2022-12-05T02:26:13.961Z,55.27
2022-12-05T02:27:13.957Z,56.24
2022-12-05T02:28:13.997Z,49.15
2022-12-05T02:29:13.912Z,56.72
2022-12-05T02:30:13.953Z,49.47
2022-12-05T02:31:13.987Z,55.11
2022-12-05T02:32:13.962Z,48.66
2022-12-05T02:33:13.870Z,51.08
2022-12-05T02:34:13.866Z,55.59
2022-12-05T02:35:13.861Z,48.82
2022-12-05T02:36:14.074Z,52.05
2022-12-05T02:37:13.948Z,50.27
2022-12-05T02:38:13.919Z,48.50
2022-12-05T02:39:13.800Z,53.82
2022-12-05T02:40:13.890Z,55.27
2022-12-05T02:41:13.791Z,53.66
2022-12-05T02:42:13.766Z,53.17
2022-12-05T02:43:13.794Z,54.95
2022-12-05T02:44:13.766Z,48.98
2022-12-05T02:45:13.733Z,46.73
2022-12-05T02:46:14.030Z,52.21
2022-12-05T02:47:13.747Z,46.25
2022-12-05T02:48:13.746Z,46.73
2022-12-05T02:49:13.710Z,48.34
2022-12-05T02:50:14.747Z,47.21
2022-12-05T02:51:13.678Z,45.60
2022-12-05T02:52:14.726Z,45.44
2022-12-05T02:53:13.705Z,51.88
2022-12-05T02:54:16.018Z,47.70
2022-12-05T02:55:13.751Z,47.53
2022-12-05T02:56:14.662Z,51.24
2022-12-05T02:57:13.630Z,51.08
2022-12-05T02:58:14.699Z,49.47
2022-12-05T02:59:17.231Z,59.78
2022-12-05T03:00:14.661Z,56.88
2022-12-05T03:01:13.726Z,53.66
2022-12-05T03:02:13.775Z,50.76
2022-12-05T03:03:13.660Z,47.37
2022-12-05T03:04:13.601Z,54.14
2022-12-05T03:05:13.570Z,47.37
2022-12-05T03:06:14.273Z,47.86
2022-12-05T03:07:13.535Z,47.53
2022-12-05T03:08:13.629Z,50.60
2022-12-05T03:09:13.540Z,46.73
2022-12-05T03:10:13.527Z,51.24
2022-12-05T03:11:13.474Z,47.53
2022-12-05T03:12:13.500Z,55.27
2022-12-05T03:13:13.946Z,56.07
2022-12-05T03:14:13.431Z,51.24
2022-12-05T03:15:13.460Z,46.73
2022-12-05T03:16:14.135Z,54.62
2022-12-05T03:17:13.436Z,50.43
2022-12-05T03:18:13.407Z,52.85
2022-12-05T03:19:13.448Z,49.79
2022-12-05T03:20:13.383Z,55.11
2022-12-05T03:21:13.363Z,52.05
2022-12-05T03:22:13.395Z,62.84
2022-12-05T03:23:13.429Z,59.78
2022-12-05T03:24:13.341Z,51.08
2022-12-05T03:25:14.142Z,47.37
2022-12-05T03:26:13.972Z,47.70
2022-12-05T03:27:13.294Z,48.18
2022-12-05T03:28:13.320Z,56.07
2022-12-05T03:29:14.032Z,55.11
2022-12-05T03:30:14.003Z,55.59
2022-12-05T03:31:13.358Z,51.88
2022-12-05T03:32:14.145Z,59.78
2022-12-05T03:33:13.264Z,54.62
2022-12-05T03:34:13.992Z,59.94
2022-12-05T03:35:14.123Z,56.40
2022-12-05T03:36:13.198Z,50.92
2022-12-05T03:37:13.972Z,48.18
2022-12-05T03:38:13.184Z,50.43
2022-12-05T03:39:13.225Z,56.24
2022-12-05T03:40:16.157Z,58.49
2022-12-05T03:41:13.161Z,58.01
2022-12-05T03:42:13.177Z,60.42
2022-12-05T03:43:15.006Z,49.31
2022-12-05T03:44:13.157Z,49.95
2022-12-05T03:45:13.632Z,58.01
2022-12-05T03:46:13.229Z,52.05
2022-12-05T03:47:13.632Z,63.16
2022-12-05T03:48:13.117Z,53.01
2022-12-05T03:49:13.128Z,51.24
2022-12-05T03:50:13.072Z,60.10
2022-12-05T03:51:14.033Z,67.35
2022-12-05T03:52:13.065Z,57.04
2022-12-05T03:53:21.427Z,63.00
2022-12-05T03:54:15.990Z,58.97
2022-12-05T03:55:13.014Z,57.20
2022-12-05T03:56:14.005Z,63.81
2022-12-05T03:57:13.005Z,54.95
2022-12-05T03:58:13.590Z,59.78
2022-12-05T03:59:12.949Z,61.71
2022-12-05T04:00:12.975Z,54.30
2022-12-05T04:01:13.738Z,65.10
2022-12-05T04:02:13.004Z,64.61
2022-12-05T04:03:12.916Z,55.43
2022-12-05T04:04:13.970Z,64.78
2022-12-05T04:05:13.568Z,61.07
2022-12-05T04:06:13.603Z,59.78
2022-12-05T04:07:12.878Z,56.24
2022-12-05T04:08:12.963Z,62.52
2022-12-05T04:09:17.118Z,63.33
2022-12-05T04:10:13.671Z,55.27
2022-12-05T04:11:12.867Z,56.88
2022-12-05T04:12:13.527Z,64.61
2022-12-05T04:13:12.806Z,64.13
2022-12-05T04:14:13.998Z,64.45
2022-12-05T04:15:12.786Z,57.69
2022-12-05T04:16:13.655Z,65.58
2022-12-05T04:17:12.770Z,63.97
2022-12-05T04:18:12.738Z,66.23
2022-12-05T04:19:13.478Z,65.10
2022-12-05T04:20:12.807Z,66.39
2022-12-05T04:21:18.427Z,61.39
2022-12-05T04:22:12.733Z,59.62
2022-12-05T04:23:12.775Z,64.13
2022-12-05T04:24:15.429Z,69.61
2022-12-05T04:25:13.792Z,65.90
2022-12-05T04:26:13.586Z,60.75
2022-12-05T04:27:12.632Z,63.65
2022-12-05T04:28:16.711Z,66.23
2022-12-05T04:29:14.612Z,69.29
2022-12-05T04:30:14.478Z,67.03
2022-12-05T04:31:13.721Z,63.33
2022-12-05T04:32:12.591Z,63.81
2022-12-05T04:33:12.612Z,63.81
2022-12-05T04:34:12.572Z,65.74
2022-12-05T04:35:12.572Z,66.71
2022-12-05T04:36:12.547Z,57.04
2022-12-05T04:37:14.039Z,69.13
2022-12-05T04:38:12.526Z,67.68
2022-12-05T04:39:17.781Z,68.64
2022-12-05T04:40:14.542Z,70.09
2022-12-05T04:41:12.475Z,66.87
2022-12-05T04:42:13.532Z,66.06
2022-12-05T04:43:12.574Z,68.80
2022-12-05T04:44:13.088Z,69.77
2022-12-05T04:45:12.460Z,69.13
2022-12-05T04:46:13.094Z,71.38
2022-12-05T04:47:12.408Z,65.26
2022-12-05T04:48:12.981Z,71.22
2022-12-05T04:49:12.404Z,69.77
2022-12-05T04:50:13.028Z,69.29
2022-12-05T04:51:12.443Z,72.19
2022-12-05T04:52:12.375Z,71.87
2022-12-05T04:53:13.126Z,69.29
2022-12-05T04:54:12.348Z,68.00
2022-12-05T04:55:12.353Z,70.90
2022-12-05T04:56:12.353Z,71.54
2022-12-05T04:57:12.324Z,68.80
2022-12-05T04:58:12.384Z,71.54
2022-12-05T04:59:12.360Z,70.09
2022-12-05T05:00:12.270Z,69.13
2022-12-05T05:01:12.298Z,70.74
2022-12-05T05:02:13.974Z,71.38
2022-12-05T05:03:12.292Z,69.77
2022-12-05T05:04:13.935Z,64.61
2022-12-05T05:05:14.180Z,68.16
2022-12-05T05:06:13.244Z,69.77
2022-12-05T05:07:12.236Z,67.51
2022-12-05T05:08:13.000Z,67.19
2022-12-05T05:09:12.192Z,68.16
2022-12-05T05:10:12.172Z,70.09
2022-12-05T05:11:12.264Z,63.81
2022-12-05T05:12:17.231Z,72.19
2022-12-05T05:13:14.156Z,66.71
2022-12-05T05:14:12.271Z,68.48
2022-12-05T05:15:12.149Z,69.77
2022-12-05T05:16:12.296Z,70.42
2022-12-05T05:17:12.108Z,67.19
2022-12-05T05:18:12.120Z,66.87
2022-12-05T05:19:12.092Z,70.58
2022-12-05T05:20:16.896Z,69.29
2022-12-05T05:21:14.050Z,72.51
2022-12-05T05:22:12.134Z,70.74
2022-12-05T05:23:12.037Z,65.58
2022-12-05T05:24:12.086Z,70.09
2022-12-05T05:25:12.976Z,72.19
2022-12-05T05:26:12.026Z,65.26
2022-12-05T05:27:11.993Z,68.32
2022-12-05T05:28:11.989Z,67.84
2022-12-05T05:29:12.019Z,73.48
2022-12-05T05:30:11.990Z,68.64
2022-12-05T05:31:12.012Z,72.19
2022-12-05T05:32:11.943Z,70.58
2022-12-05T05:33:11.913Z,72.35
2022-12-05T05:34:11.929Z,71.22
2022-12-05T05:35:11.942Z,74.44
2022-12-05T05:36:11.906Z,72.83
2022-12-05T05:37:11.905Z,73.96
2022-12-05T05:38:12.042Z,72.51
2022-12-05T05:39:11.867Z,69.93
2022-12-05T05:40:11.857Z,73.48
2022-12-05T05:41:11.834Z,71.70
2022-12-05T05:42:11.861Z,71.87
2022-12-05T05:43:12.853Z,69.77
2022-12-05T05:44:11.821Z,71.54
2022-12-05T05:45:11.802Z,71.22
2022-12-05T05:46:12.624Z,72.03
2022-12-05T05:47:11.886Z,69.13
2022-12-05T05:48:11.901Z,72.03
2022-12-05T05:49:11.798Z,71.54
2022-12-05T05:50:16.336Z,70.90
2022-12-05T05:51:11.747Z,71.06
2022-12-05T05:52:11.727Z,72.99
2022-12-05T05:53:11.724Z,73.32
2022-12-05T05:54:11.745Z,72.83
2022-12-05T05:55:11.735Z,71.87
2022-12-05T05:56:14.000Z,73.96
2022-12-05T05:57:14.031Z,70.42
2022-12-05T05:58:12.666Z,72.99
2022-12-05T05:59:11.652Z,71.06
2022-12-05T06:00:11.650Z,72.51
2022-12-05T06:01:11.630Z,67.68
2022-12-05T06:02:11.943Z,72.99
2022-12-05T06:03:11.933Z,71.54
2022-12-05T06:04:11.732Z,70.90
2022-12-05T06:05:11.583Z,72.99
2022-12-05T06:06:12.544Z,69.29
2022-12-05T06:07:11.555Z,71.70
2022-12-05T06:08:11.637Z,70.90
2022-12-05T06:09:11.562Z,71.06
2022-12-05T06:10:11.529Z,69.61
2022-12-05T06:11:11.628Z,70.90
2022-12-05T06:12:11.633Z,65.26
2022-12-05T06:13:11.517Z,65.58
2022-12-05T06:14:11.600Z,71.06
2022-12-05T06:15:11.487Z,71.06
2022-12-05T06:16:11.578Z,72.03
2022-12-05T06:17:11.480Z,71.38
2022-12-05T06:18:11.436Z,71.38
2022-12-05T06:19:11.452Z,72.03
2022-12-05T06:20:11.463Z,72.83
2022-12-05T06:21:16.020Z,71.70
2022-12-05T06:22:12.523Z,74.77
2022-12-05T06:23:11.457Z,71.87
2022-12-05T06:24:11.502Z,73.64
2022-12-05T06:25:11.372Z,71.70
2022-12-05T06:26:11.445Z,72.99
2022-12-05T06:27:11.421Z,71.87
2022-12-05T06:28:11.365Z,69.93
2022-12-05T06:29:11.391Z,73.64
2022-12-05T06:30:11.425Z,72.35
2022-12-05T06:31:11.408Z,72.83
2022-12-05T06:32:11.337Z,72.51
2022-12-05T06:33:11.362Z,72.35
2022-12-05T06:34:11.273Z,72.83
2022-12-05T06:35:11.345Z,71.70
2022-12-05T06:36:11.347Z,72.35
2022-12-05T06:37:11.284Z,72.51
2022-12-05T06:38:11.317Z,70.42
2022-12-05T06:39:11.213Z,72.99
2022-12-05T06:40:11.364Z,72.51
2022-12-05T06:41:11.315Z,73.96
2022-12-05T06:42:11.324Z,71.54
2022-12-05T06:43:11.249Z,73.96
2022-12-05T06:44:11.237Z,72.99
2022-12-05T06:45:11.242Z,72.19
2022-12-05T06:46:11.265Z,71.22
2022-12-05T06:47:11.217Z,72.99
2022-12-05T06:48:12.039Z,72.19
2022-12-05T06:49:11.921Z,72.51
2022-12-05T06:50:11.190Z,74.60
2022-12-05T06:51:11.151Z,74.77
2022-12-05T06:52:11.129Z,73.48
2022-12-05T06:53:11.077Z,73.48
2022-12-05T06:54:11.178Z,73.48
2022-12-05T06:55:11.122Z,73.15
2022-12-05T06:56:12.058Z,74.60
2022-12-05T06:57:12.086Z,74.93
2022-12-05T06:58:11.046Z,74.28
2022-12-05T06:59:11.054Z,72.35
2022-12-05T07:00:10.984Z,72.03
2022-12-05T07:01:11.228Z,69.93
2022-12-05T07:02:11.138Z,74.60
2022-12-05T07:03:10.954Z,72.19
2022-12-05T07:04:11.168Z,70.25
2022-12-05T07:05:11.015Z,63.81
2022-12-05T07:06:11.699Z,69.13
2022-12-05T07:07:10.902Z,69.61
2022-12-05T07:08:12.920Z,67.68
2022-12-05T07:09:11.067Z,73.15
2022-12-05T07:10:10.990Z,71.70
2022-12-05T07:11:12.029Z,70.74
2022-12-05T07:12:10.939Z,72.99
2022-12-05T07:13:15.595Z,71.38
2022-12-05T07:14:24.887Z,73.64
2022-12-05T07:15:11.892Z,71.38
2022-12-05T07:16:11.937Z,72.51
2022-12-05T07:17:10.887Z,72.83
2022-12-05T07:18:11.003Z,73.96
2022-12-05T07:19:10.908Z,74.28
2022-12-05T07:20:10.816Z,69.61
2022-12-05T07:21:14.022Z,73.80
2022-12-05T07:22:15.683Z,71.38
2022-12-05T07:23:11.760Z,73.64
2022-12-05T07:24:10.807Z,73.64
2022-12-05T07:25:12.381Z,73.48
2022-12-05T07:26:10.833Z,70.25
2022-12-05T07:27:10.761Z,70.74
2022-12-05T07:28:10.901Z,72.03
2022-12-05T07:29:10.765Z,70.25
2022-12-05T07:30:10.724Z,71.54
2022-12-05T07:31:10.660Z,72.67
2022-12-05T07:32:10.780Z,74.12
2022-12-05T07:33:11.397Z,71.87
2022-12-05T07:34:10.744Z,71.87
2022-12-05T07:35:11.486Z,70.42
2022-12-05T07:36:10.743Z,72.19
2022-12-05T07:37:10.633Z,72.35
2022-12-05T07:38:10.565Z,71.54
2022-12-05T07:39:10.588Z,74.93
2022-12-05T07:40:10.576Z,72.35
2022-12-05T07:41:13.489Z,67.84
2022-12-05T07:42:11.726Z,72.35
2022-12-05T07:43:10.605Z,70.58
2022-12-05T07:44:10.545Z,73.96
2022-12-05T07:45:11.417Z,72.03
2022-12-05T07:46:11.155Z,69.61
2022-12-05T07:47:10.553Z,63.97
2022-12-05T07:48:13.334Z,68.96
2022-12-05T07:49:12.565Z,72.67
2022-12-05T07:50:10.657Z,72.19
2022-12-05T07:51:10.704Z,73.32
2022-12-05T07:52:10.497Z,69.61
2022-12-05T07:53:10.425Z,66.23
2022-12-05T07:54:10.558Z,74.93
2022-12-05T07:55:11.932Z,72.51
2022-12-05T07:56:12.967Z,69.45
2022-12-05T07:57:10.441Z,70.90
2022-12-05T07:58:10.461Z,72.19
2022-12-05T07:59:10.416Z,68.32
2022-12-05T08:00:10.501Z,68.16
2022-12-05T08:01:10.613Z,68.00
2022-12-05T08:02:10.420Z,64.29
2022-12-05T08:03:11.914Z,68.64
2022-12-05T08:04:15.094Z,73.64
2022-12-05T08:05:13.907Z,71.38
2022-12-05T08:06:11.034Z,71.06
2022-12-05T08:07:10.325Z,74.44
2022-12-05T08:08:11.168Z,71.87
2022-12-05T08:09:10.285Z,71.38
2022-12-05T08:10:11.975Z,72.51
2022-12-05T08:11:10.968Z,69.93
2022-12-05T08:12:10.285Z,71.70
2022-12-05T08:13:10.322Z,69.77
2022-12-05T08:14:10.259Z,71.70
2022-12-05T08:15:10.298Z,68.80
2022-12-05T08:16:10.315Z,71.38
2022-12-05T08:17:10.292Z,68.48
2022-12-05T08:18:10.143Z,68.32
2022-12-05T08:19:10.169Z,70.90
2022-12-05T08:20:10.135Z,71.38
2022-12-05T08:21:10.138Z,70.90
2022-12-05T08:22:10.124Z,73.32
2022-12-05T08:23:10.097Z,67.03
2022-12-05T08:24:11.078Z,68.64
2022-12-05T08:25:10.274Z,73.48
2022-12-05T08:26:10.203Z,71.87
2022-12-05T08:27:10.126Z,69.13
2022-12-05T08:28:10.111Z,74.77
2022-12-05T08:29:10.020Z,72.51
2022-12-05T08:30:10.020Z,68.48
2022-12-05T08:31:10.147Z,72.19
2022-12-05T08:32:10.090Z,69.93
2022-12-05T08:33:10.903Z,70.09
2022-12-05T08:34:09.970Z,71.22
2022-12-05T08:35:09.979Z,71.06
2022-12-05T08:36:09.952Z,72.35
2022-12-05T08:37:10.063Z,73.80
2022-12-05T08:38:09.996Z,72.35
2022-12-05T08:39:09.971Z,68.64
2022-12-05T08:40:10.443Z,72.51
2022-12-05T08:41:09.986Z,73.48
2022-12-05T08:42:10.139Z,63.81
2022-12-05T08:43:10.483Z,66.39
2022-12-05T08:44:09.916Z,72.83
2022-12-05T08:45:09.858Z,72.67
2022-12-05T08:46:10.000Z,72.19
2022-12-05T08:47:09.880Z,71.54
2022-12-05T08:48:09.855Z,73.64
2022-12-05T08:49:10.511Z,71.70
2022-12-05T08:50:09.783Z,72.99
2022-12-05T08:51:09.798Z,70.09
2022-12-05T08:52:09.800Z,73.15
2022-12-05T08:53:09.773Z,73.96
2022-12-05T08:54:09.799Z,71.38
2022-12-05T08:55:09.726Z,75.09
2022-12-05T08:56:09.736Z,67.35
2022-12-05T08:57:09.731Z,71.22
2022-12-05T08:58:09.711Z,71.87
2022-12-05T08:59:09.703Z,73.48
2022-12-05T09:00:09.697Z,71.87
2022-12-05T09:01:09.736Z,69.61
2022-12-05T09:02:09.710Z,74.93
2022-12-05T09:03:09.686Z,71.87
2022-12-05T09:04:09.662Z,72.83
2022-12-05T09:05:26.901Z,74.28
2022-12-05T09:06:11.620Z,70.58
2022-12-05T09:07:09.620Z,70.58
2022-12-05T09:08:09.666Z,68.96
2022-12-05T09:09:09.586Z,72.35
2022-12-05T09:10:09.620Z,71.22
2022-12-05T09:11:09.581Z,69.13
2022-12-05T09:12:09.698Z,65.10
2022-12-05T09:13:09.634Z,74.93
2022-12-05T09:14:09.565Z,71.70
2022-12-05T09:15:09.539Z,71.70
2022-12-05T09:16:09.830Z,69.13
2022-12-05T09:17:09.517Z,67.35
2022-12-05T09:18:10.011Z,71.22
2022-12-05T09:19:09.486Z,73.32
2022-12-05T09:20:09.476Z,70.25
2022-12-05T09:21:09.572Z,68.48
2022-12-05T09:22:09.465Z,72.19
2022-12-05T09:23:14.448Z,72.19
2022-12-05T09:24:11.614Z,67.84
2022-12-05T09:25:10.006Z,70.25
2022-12-05T09:26:09.409Z,73.64
2022-12-05T09:27:09.405Z,70.74
2022-12-05T09:28:09.414Z,72.67
2022-12-05T09:29:15.826Z,67.19
2022-12-05T09:30:11.378Z,74.28
2022-12-05T09:31:09.524Z,70.58
2022-12-05T09:32:09.334Z,71.06
2022-12-05T09:33:09.537Z,74.44
2022-12-05T09:34:09.440Z,70.90
2022-12-05T09:35:09.329Z,69.13
2022-12-05T09:36:09.909Z,71.06
2022-12-05T09:37:30.930Z,70.58
2022-12-05T09:38:11.287Z,72.19
2022-12-05T09:39:10.126Z,70.09
2022-12-05T09:40:09.261Z,72.51
2022-12-05T09:41:10.034Z,69.93
2022-12-05T09:42:09.271Z,66.39
2022-12-05T09:43:09.449Z,66.55
2022-12-05T09:44:09.386Z,74.44
2022-12-05T09:45:09.454Z,69.13
2022-12-05T09:46:09.313Z,71.06
2022-12-05T09:47:09.269Z,67.03
2022-12-05T09:48:09.983Z,68.80
2022-12-05T09:49:09.974Z,69.93
2022-12-05T09:50:09.350Z,73.64
2022-12-05T09:51:10.932Z,73.32
2022-12-05T09:52:10.154Z,68.16
2022-12-05T09:53:09.242Z,68.96
2022-12-05T09:54:09.118Z,71.54
2022-12-05T09:55:10.931Z,67.35
2022-12-05T09:56:09.143Z,69.77
2022-12-05T09:57:09.226Z,72.51
2022-12-05T09:58:09.071Z,67.51
2022-12-05T09:59:09.216Z,65.42
2022-12-05T10:00:09.082Z,71.38
2022-12-05T10:01:09.224Z,71.06
2022-12-05T10:02:09.087Z,71.22
2022-12-05T10:03:09.208Z,72.67
2022-12-05T10:04:09.205Z,68.16
2022-12-05T10:05:10.489Z,71.70
2022-12-05T10:06:09.087Z,68.16
2022-12-05T10:07:09.088Z,69.29
2022-12-05T10:08:09.011Z,68.80
2022-12-05T10:09:10.142Z,70.42
2022-12-05T10:10:08.947Z,67.68
2022-12-05T10:11:09.010Z,70.90
2022-12-05T10:12:09.055Z,69.61
2022-12-05T10:13:08.999Z,68.32
2022-12-05T10:14:08.985Z,72.35
2022-12-05T10:15:08.914Z,70.09
2022-12-05T10:16:08.918Z,73.96
2022-12-05T10:17:09.011Z,70.42
2022-12-05T10:18:09.015Z,72.51
2022-12-05T10:19:09.012Z,68.32
2022-12-05T10:20:08.892Z,72.19
2022-12-05T10:21:08.916Z,71.22
2022-12-05T10:22:08.836Z,69.13
2022-12-05T10:23:18.767Z,68.32
2022-12-05T10:24:09.852Z,70.09
2022-12-05T10:25:08.825Z,68.80
2022-12-05T10:26:08.868Z,71.38
2022-12-05T10:27:08.762Z,68.96
2022-12-05T10:28:08.800Z,68.32
2022-12-05T10:29:08.832Z,74.12
2022-12-05T10:30:08.808Z,70.74
2022-12-05T10:31:08.789Z,67.03
2022-12-05T10:32:10.623Z,69.13
2022-12-05T10:33:09.792Z,68.16
2022-12-05T10:34:10.577Z,69.61
2022-12-05T10:35:08.708Z,72.03
2022-12-05T10:36:08.787Z,66.55
2022-12-05T10:37:08.660Z,70.58
2022-12-05T10:38:08.700Z,66.71
2022-12-05T10:39:11.563Z,72.51
2022-12-05T10:40:09.769Z,73.64
2022-12-05T10:41:08.709Z,71.87
2022-12-05T10:42:09.468Z,72.35
2022-12-05T10:43:08.597Z,70.42
2022-12-05T10:44:08.675Z,70.42
2022-12-05T10:45:08.673Z,73.48
2022-12-05T10:46:12.737Z,73.15
2022-12-05T10:47:11.612Z,73.32
2022-12-05T10:48:08.713Z,73.32
2022-12-05T10:49:08.538Z,74.93
2022-12-05T10:50:08.528Z,73.15
2022-12-05T10:51:08.709Z,70.58
2022-12-05T10:52:08.561Z,72.19
2022-12-05T10:53:08.593Z,70.25
2022-12-05T10:54:08.558Z,71.38
2022-12-05T10:55:08.540Z,76.05
2022-12-05T10:56:29.720Z,69.77
2022-12-05T10:57:10.463Z,71.38
2022-12-05T10:58:11.459Z,70.90
2022-12-05T10:59:10.505Z,71.54
2022-12-05T11:00:08.538Z,73.48
2022-12-05T11:01:08.493Z,74.77
2022-12-05T11:02:08.963Z,69.61
2022-12-05T11:03:09.402Z,74.77
2022-12-05T11:04:13.727Z,72.03
2022-12-05T11:05:09.549Z,70.58
2022-12-05T11:06:08.586Z,73.80
2022-12-05T11:07:08.521Z,69.93
2022-12-05T11:08:08.480Z,70.09
2022-12-05T11:09:08.339Z,71.38
2022-12-05T11:10:08.346Z,73.64
2022-12-05T11:11:14.877Z,75.73
2022-12-05T11:12:08.608Z,75.09
2022-12-05T11:13:09.018Z,67.19
2022-12-05T11:14:08.375Z,71.70
2022-12-05T11:15:08.255Z,73.96
2022-12-05T11:16:08.404Z,71.70
2022-12-05T11:17:08.245Z,70.09
2022-12-05T11:18:08.919Z,74.12
2022-12-05T11:19:08.537Z,74.28
2022-12-05T11:20:08.219Z,74.12
2022-12-05T11:21:08.402Z,68.64
2022-12-05T11:22:09.108Z,73.64
2022-12-05T11:23:08.295Z,73.64
2022-12-05T11:24:08.980Z,67.68
2022-12-05T11:25:08.259Z,74.44
2022-12-05T11:26:08.972Z,72.99
2022-12-05T11:27:08.236Z,72.99
2022-12-05T11:28:08.268Z,72.51
2022-12-05T11:29:08.206Z,74.12
2022-12-05T11:30:08.302Z,75.25
2022-12-05T11:31:08.158Z,74.28
2022-12-05T11:32:08.418Z,75.09
2022-12-05T11:33:08.176Z,73.80
2022-12-05T11:34:08.307Z,73.80
2022-12-05T11:35:08.101Z,74.60
2022-12-05T11:36:08.315Z,74.93
2022-12-05T11:37:08.174Z,70.90
2022-12-05T11:38:08.283Z,70.42
2022-12-05T11:39:08.076Z,73.15
2022-12-05T11:40:08.995Z,71.54
2022-12-05T11:41:08.051Z,71.06
2022-12-05T11:42:08.075Z,65.90
2022-12-05T11:43:07.999Z,69.45
2022-12-05T11:44:08.177Z,70.90
2022-12-05T11:45:08.032Z,72.83
2022-12-05T11:46:08.009Z,70.58
2022-12-05T11:47:08.028Z,73.48
2022-12-05T11:48:07.968Z,71.22
2022-12-05T11:49:07.967Z,70.90
2022-12-05T11:50:07.900Z,70.90
2022-12-05T11:51:07.888Z,73.48
2022-12-05T11:52:07.845Z,71.06
2022-12-05T11:53:07.917Z,69.45
2022-12-05T11:54:07.856Z,70.42
2022-12-05T11:55:07.912Z,73.64
2022-12-05T11:56:07.819Z,70.58
2022-12-05T11:57:07.884Z,70.74
2022-12-05T11:58:07.788Z,68.32
2022-12-05T11:59:07.792Z,71.87
2022-12-05T12:00:07.795Z,69.77
2022-12-05T12:01:08.110Z,73.96
2022-12-05T12:02:07.817Z,72.51
2022-12-05T12:03:07.895Z,69.61
2022-12-05T12:04:07.718Z,72.99
2022-12-05T12:05:07.794Z,72.35
2022-12-05T12:06:07.776Z,71.22
2022-12-05T12:07:07.768Z,71.06
2022-12-05T12:08:07.795Z,71.87
2022-12-05T12:09:07.674Z,71.38
2022-12-05T12:10:09.833Z,71.22
2022-12-05T12:11:08.685Z,70.42
2022-12-05T12:12:07.670Z,72.67
2022-12-05T12:13:07.672Z,72.99
2022-12-05T12:14:07.656Z,73.64
2022-12-05T12:15:07.654Z,69.77
2022-12-05T12:16:08.762Z,73.48
2022-12-05T12:17:08.642Z,71.22
2022-12-05T12:18:07.594Z,71.70
2022-12-05T12:19:07.613Z,72.19
2022-12-05T12:20:07.586Z,72.51
2022-12-05T12:21:07.542Z,72.83
2022-12-05T12:22:07.574Z,72.67
2022-12-05T12:23:07.545Z,71.38
2022-12-05T12:24:07.515Z,71.38
2022-12-05T12:25:08.043Z,73.96
2022-12-05T12:26:07.543Z,71.87
2022-12-05T12:27:07.517Z,75.25
2022-12-05T12:28:07.561Z,72.51
2022-12-05T12:29:08.531Z,70.58
2022-12-05T12:30:07.552Z,72.19
2022-12-05T12:31:07.460Z,72.03
2022-12-05T12:32:07.462Z,72.83
2022-12-05T12:33:08.878Z,73.64
2022-12-05T12:34:07.418Z,73.48
2022-12-05T12:35:07.446Z,73.64
2022-12-05T12:36:07.447Z,74.77
2022-12-05T12:37:07.579Z,71.70
2022-12-05T12:38:07.349Z,72.99
2022-12-05T12:39:07.354Z,73.96
2022-12-05T12:40:07.377Z,73.96
2022-12-05T12:41:07.399Z,71.70
2022-12-05T12:42:07.321Z,74.28
2022-12-05T12:43:07.332Z,73.48
2022-12-05T12:44:07.310Z,72.51
2022-12-05T12:45:07.356Z,72.19
2022-12-05T12:46:11.203Z,73.48
2022-12-05T12:47:08.323Z,73.96
2022-12-05T12:48:07.936Z,75.89
2022-12-05T12:49:07.242Z,72.99
2022-12-05T12:50:07.257Z,72.51
2022-12-05T12:51:07.291Z,72.99
2022-12-05T12:52:07.244Z,75.57